Time;durP1;ratioP1;P1;durP2;ratioP2;P2;SDS_P1;SDS_P2;PMS_P1;PMS_P2;Temp;Humidity;BMP_temperature;BMP_pressure;BME280_temperature;BME280_humidity;BME280_pressure;Samples;Min_cycle;Max_cycle;Signal;HPM_P1;HPM_P2
2023/12/07 00:00:06;;;;;;;;;;;2.70;99.90;;;;;;5041567;28;20221;-73
2023/12/07 00:02:52;;;;;;;;;;;2.70;99.90;;;;;;5031275;28;20055;-73
2023/12/07 00:05:38;;;;;;;;;;;2.60;99.90;;;;;;5033706;28;19913;-73
2023/12/07 00:08:24;;;;;;;;;;;2.60;99.90;;;;;;5018457;28;19939;-73
2023/12/07 00:11:10;;;;;;;;;;;2.70;99.90;;;;;;5017072;28;20011;-72
2023/12/07 00:13:56;;;;;;;;;;;2.70;99.90;;;;;;5016295;28;20198;-73
2023/12/07 00:16:42;;;;;;;;;;;2.70;99.90;;;;;;5050237;28;20384;-73
2023/12/07 00:19:28;;;;;;;;;;;2.70;99.90;;;;;;5042806;28;19912;-73
2023/12/07 00:22:14;;;;;;;;;;;2.70;99.90;;;;;;5047251;28;20007;-73
2023/12/07 00:25:01;;;;;;;;;;;2.60;99.90;;;;;;5022751;28;19970;-73
2023/12/07 00:27:47;;;;;;;;;;;2.60;99.90;;;;;;5034192;28;19918;-73
2023/12/07 00:30:35;;;;;;;;;;;2.70;99.90;;;;;;5023282;28;20338;-73
2023/12/07 00:33:21;;;;;;;;;;;2.70;99.90;;;;;;5016205;28;19923;-73
2023/12/07 00:36:08;;;;;;;;;;;2.70;99.90;;;;;;5012774;28;19924;-73
2023/12/07 00:38:54;;;;;;;;;;;2.70;99.90;;;;;;5013647;28;19932;-73
2023/12/07 00:41:40;;;;;;;;;;;2.70;99.90;;;;;;5028111;28;19921;-73
2023/12/07 00:44:26;;;;;;;;;;;2.70;99.90;;;;;;5036913;28;19912;-73
2023/12/07 00:47:12;;;;;;;;;;;2.70;99.90;;;;;;5042335;28;20571;-74
2023/12/07 00:49:58;;;;;;;;;;;2.70;99.90;;;;;;5015330;28;19909;-73
2023/12/07 00:52:44;;;;;;;;;;;2.70;99.90;;;;;;5046849;28;19913;-73
2023/12/07 00:55:31;;;;;;;;;;;2.70;99.90;;;;;;5017526;28;19963;-73
2023/12/07 00:58:17;;;;;;;;;;;2.70;99.90;;;;;;5015226;28;20348;-73
2023/12/07 01:01:03;;;;;;;;;;;2.70;99.90;;;;;;5012384;28;19913;-73
2023/12/07 01:03:49;;;;;;;;;;;2.70;99.90;;;;;;5027535;28;19959;-73
2023/12/07 01:06:35;;;;;;;;;;;2.70;99.90;;;;;;5030868;28;19921;-73
2023/12/07 01:09:21;;;;;;;;;;;2.70;99.90;;;;;;5016056;28;19920;-73
2023/12/07 01:12:07;;;;;;;;;;;2.80;99.90;;;;;;5018093;28;20290;-73
2023/12/07 01:14:53;;;;;;;;;;;2.70;99.90;;;;;;5016231;28;20012;-73
2023/12/07 01:17:39;;;;;;;;;;;2.70;99.90;;;;;;5017962;28;19921;-75
2023/12/07 01:20:25;;;;;;;;;;;2.70;99.90;;;;;;5004416;28;19995;-75
2023/12/07 01:23:11;;;;;;;;;;;2.70;99.90;;;;;;5012966;28;20319;-75
2023/12/07 01:25:57;;;;;;;;;;;2.70;99.90;;;;;;5027575;28;20559;-75
2023/12/07 01:28:43;;;;;;;;;;;2.80;99.90;;;;;;5021090;28;19917;-75
2023/12/07 01:31:30;;;;;;;;;;;2.80;99.90;;;;;;5041583;28;19920;-75
2023/12/07 01:34:17;;;;;;;;;;;2.80;99.90;;;;;;5017746;28;19968;-75
2023/12/07 01:37:03;;;;;;;;;;;2.80;99.90;;;;;;5033085;28;19920;-75
2023/12/07 01:39:49;;;;;;;;;;;2.80;99.90;;;;;;5024844;28;20228;-75
2023/12/07 01:42:35;;;;;;;;;;;2.80;99.90;;;;;;5032003;28;19990;-75
2023/12/07 01:45:21;;;;;;;;;;;2.80;99.90;;;;;;5018651;28;19909;-75
2023/12/07 01:48:07;;;;;;;;;;;2.80;99.90;;;;;;5030753;28;20341;-75
2023/12/07 01:50:53;;;;;;;;;;;2.80;99.90;;;;;;5039373;28;19974;-75
2023/12/07 01:53:39;;;;;;;;;;;2.90;99.90;;;;;;5053595;28;19908;-75
2023/12/07 01:56:25;;;;;;;;;;;2.80;99.90;;;;;;5032670;28;19909;-75
2023/12/07 01:59:11;;;;;;;;;;;2.80;99.90;;;;;;4987778;28;19925;-75
2023/12/07 02:01:57;;;;;;;;;;;2.80;99.90;;;;;;4990156;28;19917;-75
2023/12/07 02:04:43;;;;;;;;;;;2.80;99.90;;;;;;4999520;28;19910;-75
2023/12/07 02:07:29;;;;;;;;;;;2.80;99.90;;;;;;4983181;28;20338;-75
2023/12/07 02:10:15;;;;;;;;;;;2.70;99.90;;;;;;4990872;28;19910;-75
2023/12/07 02:13:03;;;;;;;;;;;2.80;99.90;;;;;;5007210;28;19913;-75
2023/12/07 02:15:50;;;;;;;;;;;2.70;99.90;;;;;;5003002;28;19920;-75
2023/12/07 02:19:05;;;;;;;;;;;2.80;99.90;;;;;;5015658;28;20326;-75
2023/12/07 02:21:52;;;;;;;;;;;2.80;99.90;;;;;;4937762;28;19910;-75
2023/12/07 02:24:38;;;;;;;;;;;2.80;99.90;;;;;;4987384;28;19943;-75
2023/12/07 02:27:45;;;;;;;;;;;2.80;99.90;;;;;;4988319;28;19913;-75
2023/12/07 02:30:31;;;;;;;;;;;2.80;99.90;;;;;;4994603;28;19913;-75
2023/12/07 02:33:17;;;;;;;;;;;2.80;99.90;;;;;;4988007;28;19916;-75
2023/12/07 02:36:05;;;;;;;;;;;2.80;99.90;;;;;;5002888;28;19910;-75
2023/12/07 02:38:51;;;;;;;;;;;2.90;99.90;;;;;;5014467;28;19952;-75
2023/12/07 02:41:36;;;;;;;;;;;2.80;99.90;;;;;;5003621;28;19909;-76
2023/12/07 02:44:22;;;;;;;;;;;2.80;99.90;;;;;;4989397;28;19913;-76
2023/12/07 02:47:08;;;;;;;;;;;2.80;99.90;;;;;;5000653;28;19917;-75
2023/12/07 02:49:54;;;;;;;;;;;2.80;99.90;;;;;;5004907;28;19910;-75
2023/12/07 02:52:40;;;;;;;;;;;2.80;99.90;;;;;;4996516;28;19983;-76
2023/12/07 02:55:26;;;;;;;;;;;2.90;99.90;;;;;;5016705;28;20340;-76
2023/12/07 02:58:12;;;;;;;;;;;2.90;99.90;;;;;;5030171;28;20361;-76
2023/12/07 03:00:59;;;;;;;;;;;2.90;99.90;;;;;;5037097;28;19963;-76
2023/12/07 03:03:45;;;;;;;;;;;2.80;99.90;;;;;;5033761;28;19909;-76
2023/12/07 03:06:30;;;;;;;;;;;2.80;99.90;;;;;;5008603;28;20233;-76
2023/12/07 03:09:16;;;;;;;;;;;2.90;99.90;;;;;;5036254;28;19915;-76
2023/12/07 03:12:02;;;;;;;;;;;2.90;99.90;;;;;;5041815;28;19943;-76
2023/12/07 03:14:49;;;;;;;;;;;2.90;99.90;;;;;;5045716;28;19909;-76
2023/12/07 03:17:35;;;;;;;;;;;2.90;99.90;;;;;;5009099;28;19913;-76
2023/12/07 03:20:21;;;;;;;;;;;2.90;99.90;;;;;;5022084;28;19917;-76
2023/12/07 03:23:07;;;;;;;;;;;2.90;99.90;;;;;;5036869;28;20321;-76
2023/12/07 03:25:53;;;;;;;;;;;2.90;99.90;;;;;;5056998;28;19908;-76
2023/12/07 03:28:38;;;;;;;;;;;2.90;99.90;;;;;;5031594;28;20318;-76
2023/12/07 03:31:24;;;;;;;;;;;2.90;99.90;;;;;;5022338;28;20261;-76
2023/12/07 03:34:12;;;;;;;;;;;2.80;99.90;;;;;;5030414;28;20058;-76
2023/12/07 03:36:58;;;;;;;;;;;2.90;99.90;;;;;;5041687;28;19969;-76
2023/12/07 03:39:44;;;;;;;;;;;2.90;99.90;;;;;;5015568;28;19909;-76
2023/12/07 03:42:30;;;;;;;;;;;2.90;99.90;;;;;;5020581;28;20350;-76
2023/12/07 03:45:16;;;;;;;;;;;2.90;99.90;;;;;;5021185;28;20223;-75
2023/12/07 03:48:03;;;;;;;;;;;2.90;99.90;;;;;;5055455;28;19923;-75
2023/12/07 03:50:49;;;;;;;;;;;2.90;99.90;;;;;;5037571;28;19916;-75
2023/12/07 03:53:35;;;;;;;;;;;2.90;99.90;;;;;;5003536;28;19939;-75
2023/12/07 03:56:25;;;;;;;;;;;2.90;99.90;;;;;;5041065;28;19962;-75
2023/12/07 03:59:11;;;;;;;;;;;2.90;99.90;;;;;;5028474;28;20023;-75
2023/12/07 04:01:57;;;;;;;;;;;3.00;99.90;;;;;;5031688;28;19917;-76
2023/12/07 04:04:43;;;;;;;;;;;2.90;99.90;;;;;;5023442;28;20488;-75
2023/12/07 04:07:29;;;;;;;;;;;3.00;99.90;;;;;;5056051;28;19913;-76
2023/12/07 04:10:15;;;;;;;;;;;3.10;99.90;;;;;;5047882;28;19936;-75
2023/12/07 04:13:01;;;;;;;;;;;3.10;99.90;;;;;;5013252;28;19909;-76
2023/12/07 04:15:47;;;;;;;;;;;3.10;99.90;;;;;;5040766;28;19913;-75
2023/12/07 04:18:33;;;;;;;;;;;3.10;99.90;;;;;;5021958;28;19913;-75
2023/12/07 04:21:19;;;;;;;;;;;3.20;99.90;;;;;;5029251;28;19919;-75
2023/12/07 04:24:05;;;;;;;;;;;3.10;99.90;;;;;;5040286;28;20329;-76
2023/12/07 04:26:51;;;;;;;;;;;3.10;99.90;;;;;;4995990;28;20333;-76
2023/12/07 04:29:37;;;;;;;;;;;3.00;99.90;;;;;;5034997;28;20293;-75
2023/12/07 04:32:23;;;;;;;;;;;3.10;99.90;;;;;;5007963;28;19940;-75
2023/12/07 04:35:09;;;;;;;;;;;3.10;99.90;;;;;;5040217;28;20210;-75
2023/12/07 04:37:55;;;;;;;;;;;3.10;99.90;;;;;;5039823;28;19917;-75
2023/12/07 04:40:41;;;;;;;;;;;3.10;99.90;;;;;;5009539;28;19924;-76
2023/12/07 04:43:27;;;;;;;;;;;3.10;99.90;;;;;;5039721;28;20437;-75
2023/12/07 04:46:13;;;;;;;;;;;3.10;99.90;;;;;;5020303;28;20265;-75
2023/12/07 04:48:59;;;;;;;;;;;3.10;99.90;;;;;;5019815;28;19982;-75
2023/12/07 04:51:46;;;;;;;;;;;3.10;99.90;;;;;;5034246;28;19923;-76
2023/12/07 04:54:32;;;;;;;;;;;3.10;99.90;;;;;;5005950;28;20383;-76
2023/12/07 04:57:18;;;;;;;;;;;3.10;99.90;;;;;;5007184;28;20494;-75
2023/12/07 05:00:06;;;;;;;;;;;3.10;99.90;;;;;;5020767;28;19908;-76
2023/12/07 05:02:52;;;;;;;;;;;3.10;99.90;;;;;;5043254;28;19924;-75
2023/12/07 05:05:37;;;;;;;;;;;3.10;99.90;;;;;;5050858;28;20688;-75
2023/12/07 05:08:23;;;;;;;;;;;3.10;99.90;;;;;;5027217;28;19939;-75
2023/12/07 05:11:09;;;;;;;;;;;3.10;99.90;;;;;;5033196;28;19918;-76
2023/12/07 05:13:57;;;;;;;;;;;3.10;99.90;;;;;;5001342;28;19909;-75
2023/12/07 05:16:43;;;;;;;;;;;3.10;99.90;;;;;;5016125;28;20276;-75
2023/12/07 05:19:29;;;;;;;;;;;3.10;99.90;;;;;;5035274;28;19923;-75
2023/12/07 05:22:15;;;;;;;;;;;3.10;99.90;;;;;;5054798;28;19923;-76
2023/12/07 05:25:01;;;;;;;;;;;3.00;99.90;;;;;;5052868;28;19990;-75
2023/12/07 05:27:47;;;;;;;;;;;3.00;99.90;;;;;;5016806;28;19913;-76
2023/12/07 05:30:33;;;;;;;;;;;3.00;99.90;;;;;;5020729;28;20018;-76
2023/12/07 05:33:22;;;;;;;;;;;3.10;99.90;;;;;;5021599;28;19944;-75
2023/12/07 05:36:08;;;;;;;;;;;3.00;99.90;;;;;;5024502;28;20285;-76
2023/12/07 05:38:54;;;;;;;;;;;3.00;99.90;;;;;;5038305;28;19909;-76
2023/12/07 05:41:40;;;;;;;;;;;3.00;99.90;;;;;;5025614;28;19927;-75
2023/12/07 05:44:25;;;;;;;;;;;3.00;99.90;;;;;;5022566;28;20214;-75
2023/12/07 05:47:13;;;;;;;;;;;3.10;99.90;;;;;;5028177;28;19918;-76
2023/12/07 05:49:59;;;;;;;;;;;3.00;99.90;;;;;;5019236;28;20357;-76
2023/12/07 05:52:45;;;;;;;;;;;3.10;99.90;;;;;;5022680;28;19910;-75
2023/12/07 05:55:31;;;;;;;;;;;3.10;99.90;;;;;;5032628;28;20000;-76
2023/12/07 05:58:17;;;;;;;;;;;3.10;99.90;;;;;;5024020;28;19917;-76
2023/12/07 06:01:03;;;;;;;;;;;3.10;99.90;;;;;;5034064;28;20652;-75
2023/12/07 06:03:49;;;;;;;;;;;3.10;99.90;;;;;;5007257;28;19936;-76
2023/12/07 06:06:35;;;;;;;;;;;3.10;99.90;;;;;;5034499;28;19970;-76
2023/12/07 06:09:22;;;;;;;;;;;3.10;99.90;;;;;;5053480;28;20271;-76
2023/12/07 06:12:08;;;;;;;;;;;3.10;99.90;;;;;;5007183;28;19909;-76
2023/12/07 06:14:55;;;;;;;;;;;3.10;99.90;;;;;;5026472;28;19943;-75
2023/12/07 06:17:40;;;;;;;;;;;3.10;99.90;;;;;;5057082;28;19952;-75
2023/12/07 06:20:26;;;;;;;;;;;3.10;99.90;;;;;;5029373;28;19909;-76
2023/12/07 06:23:12;;;;;;;;;;;3.10;99.90;;;;;;5029159;28;20241;-76
2023/12/07 06:26:00;;;;;;;;;;;3.20;99.90;;;;;;5007334;28;19972;-76
2023/12/07 06:28:46;;;;;;;;;;;3.20;99.90;;;;;;5024178;28;19919;-75
2023/12/07 06:31:32;;;;;;;;;;;3.20;99.90;;;;;;5021325;28;19909;-76
2023/12/07 06:34:17;;;;;;;;;;;3.20;99.90;;;;;;5037219;28;19933;-76
2023/12/07 06:37:04;;;;;;;;;;;3.20;99.90;;;;;;5037160;28;20014;-74
2023/12/07 06:39:50;;;;;;;;;;;3.20;99.90;;;;;;5037487;28;20633;-74
2023/12/07 06:42:36;;;;;;;;;;;3.20;99.90;;;;;;5030998;28;19979;-74
2023/12/07 06:45:22;;;;;;;;;;;3.20;99.90;;;;;;5030200;28;20004;-73
2023/12/07 06:48:08;;;;;;;;;;;3.20;99.90;;;;;;5034531;28;19970;-73
2023/12/07 06:50:55;;;;;;;;;;;3.20;99.90;;;;;;5021740;28;20043;-74
2023/12/07 06:53:42;;;;;;;;;;;3.20;99.90;;;;;;5020889;28;19924;-74
2023/12/07 06:56:28;;;;;;;;;;;3.20;99.90;;;;;;5021720;28;19909;-74
2023/12/07 06:59:14;;;;;;;;;;;3.20;99.90;;;;;;5021642;28;19928;-74
2023/12/07 07:02:00;;;;;;;;;;;3.20;99.90;;;;;;5028797;28;19913;-74
2023/12/07 07:04:48;;;;;;;;;;;3.20;99.90;;;;;;5012614;28;20000;-74
2023/12/07 07:07:34;;;;;;;;;;;3.20;99.90;;;;;;5017879;28;19947;-74
2023/12/07 07:10:20;;;;;;;;;;;3.20;99.90;;;;;;5013341;28;19913;-74
2023/12/07 07:13:06;;;;;;;;;;;3.30;99.90;;;;;;5016968;28;20245;-74
2023/12/07 07:15:54;;;;;;;;;;;3.30;99.90;;;;;;5026774;28;19909;-74
2023/12/07 07:18:42;;;;;;;;;;;3.30;99.90;;;;;;5033743;28;19916;-75
2023/12/07 07:21:27;;;;;;;;;;;3.30;99.90;;;;;;5042372;28;19908;-75
2023/12/07 07:24:14;;;;;;;;;;;3.30;99.90;;;;;;5020103;28;19908;-75
2023/12/07 07:27:00;;;;;;;;;;;3.30;99.90;;;;;;5021138;28;19913;-75
2023/12/07 07:29:46;;;;;;;;;;;3.30;99.90;;;;;;5036881;28;19916;-75
2023/12/07 07:32:33;;;;;;;;;;;3.30;99.90;;;;;;5030535;28;19916;-76
2023/12/07 07:35:19;;;;;;;;;;;3.30;99.90;;;;;;5037221;28;19909;-75
2023/12/07 07:38:05;;;;;;;;;;;3.30;99.90;;;;;;5022357;28;20375;-75
2023/12/07 07:40:51;;;;;;;;;;;3.30;99.90;;;;;;5008649;28;20298;-75
2023/12/07 07:43:37;;;;;;;;;;;3.30;99.90;;;;;;5022362;28;19912;-75
2023/12/07 07:46:24;;;;;;;;;;;3.30;99.90;;;;;;5021472;28;19940;-75
2023/12/07 07:49:10;;;;;;;;;;;3.30;99.90;;;;;;5029682;28;19925;-75
2023/12/07 07:51:57;;;;;;;;;;;3.30;99.90;;;;;;5026442;28;21119;-75
2023/12/07 07:54:43;;;;;;;;;;;3.30;99.90;;;;;;5037372;28;20797;-75
2023/12/07 07:57:30;;;;;;;;;;;3.30;99.90;;;;;;5027322;28;19927;-75
2023/12/07 08:00:19;;;;;;;;;;;3.30;99.90;;;;;;5022490;28;20022;-75
2023/12/07 08:03:05;;;;;;;;;;;3.30;99.90;;;;;;5025747;28;19944;-76
2023/12/07 08:05:52;;;;;;;;;;;3.30;99.90;;;;;;5005444;28;19913;-75
2023/12/07 08:08:38;;;;;;;;;;;3.30;99.90;;;;;;5020859;28;19964;-75
2023/12/07 08:11:24;;;;;;;;;;;3.30;99.90;;;;;;5018606;28;19988;-75
2023/12/07 08:14:10;;;;;;;;;;;3.30;99.90;;;;;;5019332;28;19913;-75
2023/12/07 08:16:56;;;;;;;;;;;3.30;99.90;;;;;;5021690;28;20595;-75
2023/12/07 08:19:42;;;;;;;;;;;3.30;99.90;;;;;;5031315;28;19952;-75
2023/12/07 08:22:28;;;;;;;;;;;3.30;99.90;;;;;;5041759;28;20336;-75
2023/12/07 08:25:14;;;;;;;;;;;3.30;99.90;;;;;;5030513;28;19915;-76
2023/12/07 08:28:00;;;;;;;;;;;3.30;99.90;;;;;;5031155;28;20368;-75
2023/12/07 08:30:46;;;;;;;;;;;3.30;99.90;;;;;;5024464;28;19910;-75
2023/12/07 08:33:39;;;;;;;;;;;3.30;99.90;;;;;;4995637;28;20313;-75
2023/12/07 08:36:25;;;;;;;;;;;3.30;99.90;;;;;;5035303;28;19917;-75
2023/12/07 08:39:11;;;;;;;;;;;3.30;99.90;;;;;;5022468;28;19912;-75
2023/12/07 08:41:59;;;;;;;;;;;3.30;99.90;;;;;;5030086;28;20444;-75
2023/12/07 08:44:45;;;;;;;;;;;3.30;99.90;;;;;;5016068;28;19941;-75
2023/12/07 08:47:31;;;;;;;;;;;3.30;99.90;;;;;;5007319;28;20265;-75
2023/12/07 08:50:17;;;;;;;;;;;3.30;99.90;;;;;;5024850;28;20364;-75
2023/12/07 08:53:04;;;;;;;;;;;3.40;99.90;;;;;;5007980;28;19997;-75
2023/12/07 08:55:51;;;;;;;;;;;3.40;99.90;;;;;;5019297;28;19924;-75
2023/12/07 08:58:37;;;;;;;;;;;3.40;99.90;;;;;;5013424;28;19995;-75
2023/12/07 09:01:23;;;;;;;;;;;3.30;99.90;;;;;;5004469;28;19993;-75
2023/12/07 09:04:08;;;;;;;;;;;3.30;99.90;;;;;;5008653;28;19936;-75
2023/12/07 09:06:56;;;;;;;;;;;3.30;99.90;;;;;;5003047;28;20339;-76
2023/12/07 09:09:47;;;;;;;;;;;3.30;99.90;;;;;;5010556;28;19913;-76
2023/12/07 09:12:35;;;;;;;;;;;3.40;99.90;;;;;;5014615;28;19920;-76
2023/12/07 09:15:23;;;;;;;;;;;3.40;99.90;;;;;;5005724;28;19913;-76
2023/12/07 09:18:11;;;;;;;;;;;3.40;99.90;;;;;;5020910;28;19909;-76
2023/12/07 09:20:57;;;;;;;;;;;3.40;99.90;;;;;;5017281;28;19957;-76
2023/12/07 09:23:43;;;;;;;;;;;3.50;99.90;;;;;;5009904;28;19909;-76
2023/12/07 09:26:29;;;;;;;;;;;3.50;99.90;;;;;;4998006;28;19914;-76
2023/12/07 09:29:15;;;;;;;;;;;3.50;99.90;;;;;;5013579;28;20529;-76
2023/12/07 09:32:00;;;;;;;;;;;3.50;99.90;;;;;;5014156;28;20661;-75
2023/12/07 09:34:46;;;;;;;;;;;3.50;99.90;;;;;;5013945;28;20851;-75
2023/12/07 09:37:33;;;;;;;;;;;3.50;99.90;;;;;;5002548;28;19924;-75
2023/12/07 09:40:19;;;;;;;;;;;3.60;99.90;;;;;;5026386;28;20235;-75
2023/12/07 09:43:05;;;;;;;;;;;3.60;99.90;;;;;;5025331;28;19920;-75
2023/12/07 09:45:51;;;;;;;;;;;3.60;99.90;;;;;;5014417;28;19944;-75
2023/12/07 09:48:37;;;;;;;;;;;3.60;99.90;;;;;;5017572;28;19910;-75
2023/12/07 09:51:23;;;;;;;;;;;3.60;99.90;;;;;;5024652;28;19913;-75
2023/12/07 09:54:10;;;;;;;;;;;3.60;99.90;;;;;;5026443;28;20326;-75
2023/12/07 09:56:57;;;;;;;;;;;3.60;99.90;;;;;;5011827;28;19918;-75
2023/12/07 09:59:43;;;;;;;;;;;3.60;99.90;;;;;;5005028;28;19916;-75
2023/12/07 10:02:31;;;;;;;;;;;3.60;99.90;;;;;;5015062;28;19952;-75
2023/12/07 10:05:17;;;;;;;;;;;3.60;99.90;;;;;;5031008;28;19918;-75
2023/12/07 10:08:03;;;;;;;;;;;3.70;99.90;;;;;;5033716;28;19924;-75
2023/12/07 10:10:50;;;;;;;;;;;3.70;99.90;;;;;;5020125;28;19992;-75
2023/12/07 10:13:36;;;;;;;;;;;3.70;99.90;;;;;;5023982;28;19913;-75
2023/12/07 10:16:22;;;;;;;;;;;3.70;99.90;;;;;;5033012;28;19919;-75
2023/12/07 10:19:17;;;;;;;;;;;3.70;99.90;;;;;;5033832;28;19928;-75
2023/12/07 10:22:05;;;;;;;;;;;3.80;99.90;;;;;;5023101;28;20003;-75
2023/12/07 10:24:51;;;;;;;;;;;3.80;99.90;;;;;;5015010;28;19959;-75
2023/12/07 10:27:38;;;;;;;;;;;3.90;99.90;;;;;;5023565;28;19916;-76
2023/12/07 10:30:25;;;;;;;;;;;3.90;99.90;;;;;;5023891;28;19909;-75
2023/12/07 10:33:12;;;;;;;;;;;3.90;99.90;;;;;;5014714;28;19913;-75
2023/12/07 10:35:58;;;;;;;;;;;3.80;99.90;;;;;;5023335;28;19958;-76
2023/12/07 10:38:45;;;;;;;;;;;3.80;99.90;;;;;;5044337;28;20008;-76
2023/12/07 10:41:31;;;;;;;;;;;3.80;99.90;;;;;;5024011;28;19912;-76
2023/12/07 10:44:17;;;;;;;;;;;3.80;99.90;;;;;;5022805;28;19973;-76
2023/12/07 10:47:03;;;;;;;;;;;3.80;99.90;;;;;;5003751;28;19913;-76
2023/12/07 10:49:50;;;;;;;;;;;3.90;99.90;;;;;;5027219;28;19996;-76
2023/12/07 10:52:40;;;;;;;;;;;3.90;99.90;;;;;;5036622;28;20241;-76
2023/12/07 10:55:30;;;;;;;;;;;3.90;99.90;;;;;;5030140;28;19921;-76
2023/12/07 10:58:16;;;;;;;;;;;3.90;99.90;;;;;;5036216;28;19924;-76
2023/12/07 11:01:03;;;;;;;;;;;3.80;99.90;;;;;;5021397;28;19909;-76
2023/12/07 11:03:49;;;;;;;;;;;3.90;99.90;;;;;;5022720;28;19917;-76
2023/12/07 11:06:35;;;;;;;;;;;3.90;99.90;;;;;;5023144;28;19921;-76
2023/12/07 11:09:23;;;;;;;;;;;3.90;99.90;;;;;;5016082;28;19917;-76
2023/12/07 11:12:11;;;;;;;;;;;3.90;99.90;;;;;;5016868;28;19910;-76
2023/12/07 11:14:57;;;;;;;;;;;3.90;99.90;;;;;;5023627;28;19924;-76
2023/12/07 11:18:03;;;;;;;;;;;3.90;99.90;;;;;;5018073;28;20392;-76
2023/12/07 11:20:50;;;;;;;;;;;3.90;99.90;;;;;;5032979;28;19913;-76
2023/12/07 11:23:36;;;;;;;;;;;3.90;99.90;;;;;;5030958;28;19975;-76
2023/12/07 11:26:22;;;;;;;;;;;4.00;99.90;;;;;;5026716;28;19913;-75
2023/12/07 11:29:08;;;;;;;;;;;4.00;99.90;;;;;;5018802;28;19913;-75
2023/12/07 11:32:01;;;;;;;;;;;4.00;99.90;;;;;;5015323;28;20233;-73
2023/12/07 11:34:47;;;;;;;;;;;4.00;99.90;;;;;;5033274;28;20000;-73
2023/12/07 11:37:52;;;;;;;;;;;4.00;99.90;;;;;;5026361;28;20012;-73
2023/12/07 11:40:58;;;;;;;;;;;4.00;99.90;;;;;;5027668;28;19959;-73
2023/12/07 11:43:45;;;;;;;;;;;4.10;99.90;;;;;;5024575;28;20030;-73
2023/12/07 11:46:31;;;;;;;;;;;4.00;99.90;;;;;;5019182;28;20288;-73
2023/12/07 11:49:19;;;;;;;;;;;4.00;99.90;;;;;;5017607;28;19944;-73
2023/12/07 11:52:14;;;;;;;;;;;4.10;99.90;;;;;;5009196;28;19909;-73
2023/12/07 11:55:03;;;;;;;;;;;4.10;99.90;;;;;;5035235;28;19913;-73
2023/12/07 11:57:48;;;;;;;;;;;4.10;99.90;;;;;;5001168;28;19928;-73
2023/12/07 12:00:36;;;;;;;;;;;4.20;99.90;;;;;;5020285;28;19997;-73
2023/12/07 12:03:22;;;;;;;;;;;4.20;99.90;;;;;;5014249;28;20088;-73
2023/12/07 12:06:10;;;;;;;;;;;4.20;99.90;;;;;;5003993;28;19999;-73
2023/12/07 12:08:56;;;;;;;;;;;4.20;99.90;;;;;;4992319;28;19909;-73
2023/12/07 12:11:46;;;;;;;;;;;4.20;99.90;;;;;;4993179;28;19914;-73
2023/12/07 12:14:32;;;;;;;;;;;4.20;99.90;;;;;;4999897;28;19949;-73
2023/12/07 12:17:20;;;;;;;;;;;4.20;99.90;;;;;;5012320;28;19913;-73
2023/12/07 12:20:06;;;;;;;;;;;4.20;99.90;;;;;;5001091;28;19909;-73
2023/12/07 12:22:54;;;;;;;;;;;4.20;99.90;;;;;;5007253;28;19945;-72
2023/12/07 12:25:40;;;;;;;;;;;4.20;99.90;;;;;;4999863;28;19920;-72
2023/12/07 12:28:27;;;;;;;;;;;4.20;99.90;;;;;;5007522;28;19917;-75
2023/12/07 12:31:16;;;;;;;;;;;4.20;99.90;;;;;;5001624;28;19909;-74
2023/12/07 12:34:02;;;;;;;;;;;4.20;99.90;;;;;;5010024;28;20012;-73
2023/12/07 12:36:48;;;;;;;;;;;4.20;99.90;;;;;;5001316;28;19914;-73
2023/12/07 12:39:34;;;;;;;;;;;4.30;99.90;;;;;;5005084;28;20278;-73
2023/12/07 12:42:20;;;;;;;;;;;4.20;99.90;;;;;;5019075;28;20435;-73
2023/12/07 12:45:08;;;;;;;;;;;4.20;99.90;;;;;;5010986;28;20456;-73
2023/12/07 12:47:55;;;;;;;;;;;4.30;99.90;;;;;;5007411;28;20019;-74
2023/12/07 12:50:41;;;;;;;;;;;4.30;99.90;;;;;;5023284;28;19960;-73
2023/12/07 12:53:28;;;;;;;;;;;4.20;99.90;;;;;;5011074;28;19909;-73
2023/12/07 12:56:16;;;;;;;;;;;4.20;99.90;;;;;;5014245;28;19919;-73
2023/12/07 12:59:02;;;;;;;;;;;4.30;99.90;;;;;;5012599;28;19921;-73
2023/12/07 13:01:48;;;;;;;;;;;4.20;99.90;;;;;;5024351;28;19910;-73
2023/12/07 13:04:34;;;;;;;;;;;4.20;99.90;;;;;;5011557;28;19988;-73
2023/12/07 13:07:20;;;;;;;;;;;4.20;99.90;;;;;;5015213;28;20272;-73
2023/12/07 13:10:08;;;;;;;;;;;4.20;99.90;;;;;;5013095;28;19945;-74
2023/12/07 13:12:55;;;;;;;;;;;4.20;99.90;;;;;;5023526;28;19913;-74
2023/12/07 13:15:41;;;;;;;;;;;4.20;99.90;;;;;;5009368;28;20227;-74
2023/12/07 13:18:27;;;;;;;;;;;4.20;99.90;;;;;;4982545;28;19910;-75
2023/12/07 13:21:15;;;;;;;;;;;4.30;99.90;;;;;;5012136;28;19999;-74
2023/12/07 13:24:04;;;;;;;;;;;4.30;99.90;;;;;;5008327;28;19943;-74
2023/12/07 13:26:50;;;;;;;;;;;4.30;99.90;;;;;;5021316;28;19917;-74
2023/12/07 13:29:36;;;;;;;;;;;4.20;99.90;;;;;;4997872;28;20484;-72
2023/12/07 13:32:23;;;;;;;;;;;4.30;99.90;;;;;;5002723;28;20265;-74
2023/12/07 13:35:09;;;;;;;;;;;4.30;99.90;;;;;;4991071;28;19913;-74
2023/12/07 13:37:55;;;;;;;;;;;4.30;99.90;;;;;;5018882;28;19917;-74
2023/12/07 13:40:41;;;;;;;;;;;4.40;99.90;;;;;;4998711;28;19917;-74
2023/12/07 13:43:29;;;;;;;;;;;4.40;99.90;;;;;;5002080;28;19914;-74
2023/12/07 13:46:16;;;;;;;;;;;4.40;99.90;;;;;;5009923;28;19919;-74
2023/12/07 13:49:03;;;;;;;;;;;4.50;99.90;;;;;;5010812;28;19913;-74
2023/12/07 13:51:49;;;;;;;;;;;4.40;99.90;;;;;;5004924;28;19984;-74
2023/12/07 13:54:36;;;;;;;;;;;4.50;99.90;;;;;;4997820;28;19914;-74
2023/12/07 13:57:24;;;;;;;;;;;4.40;99.90;;;;;;5019699;28;20334;-74
2023/12/07 14:00:13;;;;;;;;;;;4.50;99.90;;;;;;5023934;28;20512;-74
2023/12/07 14:02:59;;;;;;;;;;;4.50;99.90;;;;;;5028696;28;20471;-75
2023/12/07 14:05:46;;;;;;;;;;;4.50;99.90;;;;;;5006887;28;19913;-74
2023/12/07 14:08:32;;;;;;;;;;;4.50;99.90;;;;;;5014056;28;19913;-76
2023/12/07 14:11:19;;;;;;;;;;;4.50;99.90;;;;;;5022077;28;19909;-76
2023/12/07 14:14:05;;;;;;;;;;;4.50;99.90;;;;;;5007244;28;19909;-75
2023/12/07 14:16:51;;;;;;;;;;;4.60;99.90;;;;;;5033877;28;19909;-75
2023/12/07 14:19:38;;;;;;;;;;;4.60;99.90;;;;;;5024666;28;20015;-76
2023/12/07 14:22:24;;;;;;;;;;;4.60;99.90;;;;;;5013884;28;20323;-75
2023/12/07 14:25:10;;;;;;;;;;;4.60;99.90;;;;;;5006414;28;19909;-76
2023/12/07 14:27:57;;;;;;;;;;;4.60;99.90;;;;;;5026407;28;20309;-76
2023/12/07 14:30:44;;;;;;;;;;;4.60;99.90;;;;;;5027369;28;19909;-75
2023/12/07 14:33:30;;;;;;;;;;;4.50;99.90;;;;;;5031048;28;20276;-75
2023/12/07 14:36:17;;;;;;;;;;;4.50;99.90;;;;;;5017625;28;20020;-75
2023/12/07 14:39:06;;;;;;;;;;;4.50;99.90;;;;;;5027781;28;20062;-75
2023/12/07 14:41:52;;;;;;;;;;;4.50;99.90;;;;;;5033635;28;19912;-76
2023/12/07 14:44:38;;;;;;;;;;;4.50;99.90;;;;;;5042411;28;19913;-76
2023/12/07 14:47:24;;;;;;;;;;;4.50;99.90;;;;;;5006731;28;19996;-76
2023/12/07 14:50:13;;;;;;;;;;;4.40;99.90;;;;;;5006560;28;19909;-76
2023/12/07 14:52:59;;;;;;;;;;;4.40;99.90;;;;;;5013033;28;20322;-76
2023/12/07 14:55:45;;;;;;;;;;;4.40;99.90;;;;;;5019511;28;19952;-76
2023/12/07 14:58:31;;;;;;;;;;;4.40;99.90;;;;;;5015002;28;19956;-76
2023/12/07 15:01:17;;;;;;;;;;;4.40;99.90;;;;;;5026673;28;19914;-75
2023/12/07 15:04:03;;;;;;;;;;;4.40;99.90;;;;;;4998019;28;19920;-75
2023/12/07 15:06:50;;;;;;;;;;;4.30;99.90;;;;;;5019449;28;19968;-75
2023/12/07 15:09:37;;;;;;;;;;;4.30;99.90;;;;;;5014176;28;19920;-75
2023/12/07 15:12:27;;;;;;;;;;;4.30;99.90;;;;;;5011131;28;19941;-75
2023/12/07 15:15:13;;;;;;;;;;;4.30;99.90;;;;;;5013431;28;19909;-75
2023/12/07 15:18:00;;;;;;;;;;;4.20;99.90;;;;;;5013136;28;20056;-76
2023/12/07 15:20:46;;;;;;;;;;;4.20;99.90;;;;;;5005133;28;20024;-76
2023/12/07 15:23:32;;;;;;;;;;;4.20;99.90;;;;;;5012898;28;19909;-75
2023/12/07 15:26:19;;;;;;;;;;;4.20;99.90;;;;;;5010823;28;19913;-75
2023/12/07 15:29:05;;;;;;;;;;;4.10;99.90;;;;;;5004316;28;19913;-75
2023/12/07 15:31:51;;;;;;;;;;;4.10;99.90;;;;;;5026841;28;19924;-76
2023/12/07 15:34:39;;;;;;;;;;;4.00;99.90;;;;;;5021065;28;19910;-75
2023/12/07 15:37:25;;;;;;;;;;;4.00;99.90;;;;;;5007825;28;20794;-75
2023/12/07 15:40:11;;;;;;;;;;;4.00;99.90;;;;;;5017446;28;19952;-76
2023/12/07 15:42:57;;;;;;;;;;;4.00;99.90;;;;;;5020996;28;19921;-75
2023/12/07 15:45:43;;;;;;;;;;;3.90;99.90;;;;;;5010121;28;20693;-75
2023/12/07 15:48:29;;;;;;;;;;;3.90;99.90;;;;;;4998702;28;19964;-75
2023/12/07 15:51:15;;;;;;;;;;;3.90;99.90;;;;;;5011813;28;19909;-75
2023/12/07 15:54:01;;;;;;;;;;;3.90;99.90;;;;;;5007512;28;19996;-75
2023/12/07 15:56:47;;;;;;;;;;;3.90;99.90;;;;;;5027989;28;19920;-75
2023/12/07 15:59:33;;;;;;;;;;;3.90;99.90;;;;;;5018351;28;19979;-75
2023/12/07 16:02:19;;;;;;;;;;;3.90;99.90;;;;;;5005263;28;19913;-75
2023/12/07 16:05:09;;;;;;;;;;;3.80;99.90;;;;;;5023048;28;19920;-74
2023/12/07 16:07:55;;;;;;;;;;;3.80;99.90;;;;;;5019743;28;19917;-75
2023/12/07 16:10:41;;;;;;;;;;;3.80;99.90;;;;;;5016027;28;19918;-75
2023/12/07 16:13:27;;;;;;;;;;;3.80;99.90;;;;;;5028089;28;19909;-75
2023/12/07 16:16:13;;;;;;;;;;;3.80;99.90;;;;;;5012525;28;19966;-75
2023/12/07 16:19:00;;;;;;;;;;;3.80;99.90;;;;;;5020971;28;19950;-74
2023/12/07 16:21:46;;;;;;;;;;;3.80;99.90;;;;;;5025544;28;19917;-75
2023/12/07 16:24:32;;;;;;;;;;;3.70;99.90;;;;;;5015269;28;19913;-75